sensor_id;sensor_type;location;lat;lon;timestamp;P1;durP1;ratioP1;P2;durP2;ratioP2
73168;SDS011;61379;59.732;30.468;2023-04-06T00:00:40;21.02;;;12.73;;
73168;SDS011;61379;59.732;30.468;2023-04-06T00:03:07;21.73;;;12.73;;
73168;SDS011;61379;59.732;30.468;2023-04-06T00:05:34;15.65;;;13.20;;
73168;SDS011;61379;59.732;30.468;2023-04-06T00:08:00;14.90;;;12.32;;
73168;SDS011;61379;59.732;30.468;2023-04-06T00:10:28;15.07;;;11.75;;
73168;SDS011;61379;59.732;30.468;2023-04-06T00:12:55;13.80;;;11.63;;
73168;SDS011;61379;59.732;30.468;2023-04-06T00:15:22;11.48;;;10.40;;
73168;SDS011;61379;59.732;30.468;2023-04-06T00:17:49;12.25;;;10.10;;
73168;SDS011;61379;59.732;30.468;2023-04-06T00:20:16;12.80;;;10.25;;
73168;SDS011;61379;59.732;30.468;2023-04-06T00:22:43;10.68;;;9.68;;
73168;SDS011;61379;59.732;30.468;2023-04-06T00:25:10;10.23;;;9.25;;
73168;SDS011;61379;59.732;30.468;2023-04-06T00:27:38;10.05;;;9.15;;
73168;SDS011;61379;59.732;30.468;2023-04-06T00:30:05;10.05;;;9.07;;
73168;SDS011;61379;59.732;30.468;2023-04-06T00:32:33;10.65;;;9.75;;
73168;SDS011;61379;59.732;30.468;2023-04-06T00:35:01;10.70;;;9.80;;
73168;SDS011;61379;59.732;30.468;2023-04-06T00:37:29;10.13;;;9.05;;
73168;SDS011;61379;59.732;30.468;2023-04-06T00:39:56;9.93;;;9.13;;
73168;SDS011;61379;59.732;30.468;2023-04-06T00:42:22;10.10;;;9.10;;
73168;SDS011;61379;59.732;30.468;2023-04-06T00:44:53;10.05;;;9.13;;
73168;SDS011;61379;59.732;30.468;2023-04-06T00:47:20;10.27;;;9.27;;
73168;SDS011;61379;59.732;30.468;2023-04-06T00:49:47;11.18;;;9.00;;
73168;SDS011;61379;59.732;30.468;2023-04-06T00:52:14;10.13;;;9.18;;
73168;SDS011;61379;59.732;30.468;2023-04-06T00:54:41;10.15;;;9.27;;
73168;SDS011;61379;59.732;30.468;2023-04-06T00:57:07;9.77;;;9.02;;
73168;SDS011;61379;59.732;30.468;2023-04-06T00:59:34;10.27;;;9.32;;
73168;SDS011;61379;59.732;30.468;2023-04-06T01:02:02;11.27;;;10.10;;
73168;SDS011;61379;59.732;30.468;2023-04-06T01:04:29;10.75;;;9.60;;
73168;SDS011;61379;59.732;30.468;2023-04-06T01:06:58;10.85;;;9.95;;
73168;SDS011;61379;59.732;30.468;2023-04-06T01:09:27;11.18;;;10.07;;
73168;SDS011;61379;59.732;30.468;2023-04-06T01:11:53;11.77;;;10.73;;
73168;SDS011;61379;59.732;30.468;2023-04-06T01:14:20;11.02;;;10.00;;
73168;SDS011;61379;59.732;30.468;2023-04-06T01:16:47;11.07;;;10.07;;
73168;SDS011;61379;59.732;30.468;2023-04-06T01:19:15;10.80;;;9.80;;
73168;SDS011;61379;59.732;30.468;2023-04-06T01:21:42;10.45;;;9.48;;
73168;SDS011;61379;59.732;30.468;2023-04-06T01:24:10;10.98;;;9.95;;
73168;SDS011;61379;59.732;30.468;2023-04-06T01:26:37;10.50;;;9.60;;
73168;SDS011;61379;59.732;30.468;2023-04-06T01:29:04;10.80;;;9.80;;
73168;SDS011;61379;59.732;30.468;2023-04-06T01:31:31;10.27;;;9.40;;
73168;SDS011;61379;59.732;30.468;2023-04-06T01:33:57;11.00;;;10.10;;
73168;SDS011;61379;59.732;30.468;2023-04-06T01:36:24;10.65;;;9.60;;
73168;SDS011;61379;59.732;30.468;2023-04-06T01:38:51;10.95;;;9.90;;
73168;SDS011;61379;59.732;30.468;2023-04-06T01:41:19;11.05;;;10.05;;
73168;SDS011;61379;59.732;30.468;2023-04-06T01:43:47;10.82;;;9.75;;
73168;SDS011;61379;59.732;30.468;2023-04-06T01:46:13;10.15;;;9.25;;
73168;SDS011;61379;59.732;30.468;2023-04-06T01:48:40;10.90;;;9.80;;
73168;SDS011;61379;59.732;30.468;2023-04-06T01:51:07;10.77;;;9.77;;
73168;SDS011;61379;59.732;30.468;2023-04-06T01:53:34;12.23;;;10.90;;
73168;SDS011;61379;59.732;30.468;2023-04-06T01:56:00;11.00;;;9.82;;
73168;SDS011;61379;59.732;30.468;2023-04-06T01:58:28;10.30;;;9.43;;
73168;SDS011;61379;59.732;30.468;2023-04-06T02:00:55;11.30;;;10.20;;
73168;SDS011;61379;59.732;30.468;2023-04-06T02:03:22;11.15;;;10.13;;
73168;SDS011;61379;59.732;30.468;2023-04-06T02:05:48;10.45;;;9.55;;
73168;SDS011;61379;59.732;30.468;2023-04-06T02:08:15;10.50;;;9.55;;
73168;SDS011;61379;59.732;30.468;2023-04-06T02:10:42;10.95;;;10.05;;
73168;SDS011;61379;59.732;30.468;2023-04-06T02:13:08;11.57;;;10.38;;
73168;SDS011;61379;59.732;30.468;2023-04-06T02:15:37;12.20;;;11.10;;
73168;SDS011;61379;59.732;30.468;2023-04-06T02:18:03;11.55;;;10.48;;
73168;SDS011;61379;59.732;30.468;2023-04-06T02:20:30;11.27;;;10.18;;
73168;SDS011;61379;59.732;30.468;2023-04-06T02:22:58;11.25;;;10.27;;
73168;SDS011;61379;59.732;30.468;2023-04-06T02:25:25;12.40;;;11.30;;
73168;SDS011;61379;59.732;30.468;2023-04-06T02:27:51;11.43;;;10.25;;
73168;SDS011;61379;59.732;30.468;2023-04-06T02:30:18;11.80;;;10.70;;
73168;SDS011;61379;59.732;30.468;2023-04-06T02:32:46;10.77;;;9.80;;
73168;SDS011;61379;59.732;30.468;2023-04-06T02:35:13;12.10;;;10.57;;
73168;SDS011;61379;59.732;30.468;2023-04-06T02:37:40;11.98;;;10.77;;
73168;SDS011;61379;59.732;30.468;2023-04-06T02:40:07;11.20;;;10.10;;
73168;SDS011;61379;59.732;30.468;2023-04-06T02:42:34;12.85;;;11.55;;
73168;SDS011;61379;59.732;30.468;2023-04-06T02:45:00;11.75;;;10.55;;
73168;SDS011;61379;59.732;30.468;2023-04-06T02:47:28;11.20;;;10.10;;
73168;SDS011;61379;59.732;30.468;2023-04-06T02:49:56;12.27;;;11.00;;
73168;SDS011;61379;59.732;30.468;2023-04-06T02:52:23;12.38;;;10.63;;
73168;SDS011;61379;59.732;30.468;2023-04-06T02:54:49;11.45;;;10.20;;
73168;SDS011;61379;59.732;30.468;2023-04-06T02:57:16;12.80;;;10.32;;
73168;SDS011;61379;59.732;30.468;2023-04-06T02:59:43;11.88;;;10.68;;
73168;SDS011;61379;59.732;30.468;2023-04-06T03:02:10;12.45;;;11.10;;
73168;SDS011;61379;59.732;30.468;2023-04-06T03:04:37;16.55;;;11.40;;
73168;SDS011;61379;59.732;30.468;2023-04-06T03:07:05;13.18;;;11.63;;
73168;SDS011;61379;59.732;30.468;2023-04-06T03:09:31;13.70;;;11.95;;
73168;SDS011;61379;59.732;30.468;2023-04-06T03:11:58;13.48;;;12.00;;
73168;SDS011;61379;59.732;30.468;2023-04-06T03:14:27;12.38;;;10.60;;
73168;SDS011;61379;59.732;30.468;2023-04-06T03:16:53;12.73;;;10.27;;
73168;SDS011;61379;59.732;30.468;2023-04-06T03:19:20;11.93;;;10.60;;
73168;SDS011;61379;59.732;30.468;2023-04-06T03:21:47;11.57;;;10.57;;
73168;SDS011;61379;59.732;30.468;2023-04-06T03:24:15;13.38;;;11.35;;
73168;SDS011;61379;59.732;30.468;2023-04-06T03:26:41;11.40;;;10.23;;
73168;SDS011;61379;59.732;30.468;2023-04-06T03:29:08;11.70;;;10.57;;
73168;SDS011;61379;59.732;30.468;2023-04-06T03:31:35;11.43;;;10.23;;
73168;SDS011;61379;59.732;30.468;2023-04-06T03:34:02;12.52;;;11.50;;
73168;SDS011;61379;59.732;30.468;2023-04-06T03:36:28;10.65;;;9.75;;
73168;SDS011;61379;59.732;30.468;2023-04-06T03:38:55;11.90;;;10.90;;
73168;SDS011;61379;59.732;30.468;2023-04-06T03:41:23;11.32;;;10.27;;
73168;SDS011;61379;59.732;30.468;2023-04-06T03:43:50;11.30;;;10.35;;
73168;SDS011;61379;59.732;30.468;2023-04-06T03:46:16;12.50;;;11.50;;
73168;SDS011;61379;59.732;30.468;2023-04-06T03:48:43;10.32;;;9.52;;
73168;SDS011;61379;59.732;30.468;2023-04-06T03:51:10;11.40;;;10.50;;
73168;SDS011;61379;59.732;30.468;2023-04-06T03:53:37;11.45;;;10.45;;
73168;SDS011;61379;59.732;30.468;2023-04-06T03:56:04;11.75;;;10.73;;
73168;SDS011;61379;59.732;30.468;2023-04-06T03:58:32;10.43;;;9.52;;
73168;SDS011;61379;59.732;30.468;2023-04-06T04:00:59;11.52;;;10.48;;
73168;SDS011;61379;59.732;30.468;2023-04-06T04:03:25;10.60;;;9.50;;
73168;SDS011;61379;59.732;30.468;2023-04-06T04:05:52;11.23;;;9.98;;
73168;SDS011;61379;59.732;30.468;2023-04-06T04:08:20;12.13;;;10.93;;
73168;SDS011;61379;59.732;30.468;2023-04-06T04:10:47;12.35;;;11.20;;
73168;SDS011;61379;59.732;30.468;2023-04-06T04:13:13;11.23;;;10.15;;
73168;SDS011;61379;59.732;30.468;2023-04-06T04:15:42;13.07;;;11.88;;
73168;SDS011;61379;59.732;30.468;2023-04-06T04:18:08;12.23;;;11.05;;
73168;SDS011;61379;59.732;30.468;2023-04-06T04:20:35;12.27;;;10.95;;
73168;SDS011;61379;59.732;30.468;2023-04-06T04:23:02;16.70;;;11.27;;
73168;SDS011;61379;59.732;30.468;2023-04-06T04:25:28;10.45;;;9.43;;
73168;SDS011;61379;59.732;30.468;2023-04-06T04:27:55;11.48;;;10.32;;
73168;SDS011;61379;59.732;30.468;2023-04-06T04:30:22;12.68;;;9.70;;
73168;SDS011;61379;59.732;30.468;2023-04-06T04:32:50;11.02;;;9.90;;
73168;SDS011;61379;59.732;30.468;2023-04-06T04:35:17;10.88;;;9.77;;
73168;SDS011;61379;59.732;30.468;2023-04-06T04:37:43;11.82;;;9.75;;
73168;SDS011;61379;59.732;30.468;2023-04-06T04:40:10;13.77;;;11.50;;
73168;SDS011;61379;59.732;30.468;2023-04-06T04:42:37;13.65;;;10.77;;
73168;SDS011;61379;59.732;30.468;2023-04-06T04:45:04;14.27;;;11.00;;
73168;SDS011;61379;59.732;30.468;2023-04-06T04:47:31;15.55;;;11.30;;
73168;SDS011;61379;59.732;30.468;2023-04-06T04:49:59;13.27;;;11.85;;
73168;SDS011;61379;59.732;30.468;2023-04-06T04:52:26;11.63;;;10.52;;
73168;SDS011;61379;59.732;30.468;2023-04-06T04:54:53;12.13;;;10.70;;
73168;SDS011;61379;59.732;30.468;2023-04-06T04:57:19;15.32;;;11.55;;
73168;SDS011;61379;59.732;30.468;2023-04-06T04:59:46;13.60;;;11.82;;
73168;SDS011;61379;59.732;30.468;2023-04-06T05:02:13;12.77;;;11.30;;
73168;SDS011;61379;59.732;30.468;2023-04-06T05:04:39;11.73;;;10.50;;
73168;SDS011;61379;59.732;30.468;2023-04-06T05:07:08;15.98;;;11.40;;
73168;SDS011;61379;59.732;30.468;2023-04-06T05:09:35;12.52;;;10.27;;
73168;SDS011;61379;59.732;30.468;2023-04-06T05:12:02;11.82;;;10.63;;
73168;SDS011;61379;59.732;30.468;2023-04-06T05:14:29;13.52;;;10.55;;
73168;SDS011;61379;59.732;30.468;2023-04-06T05:16:56;15.73;;;10.98;;
73168;SDS011;61379;59.732;30.468;2023-04-06T05:19:22;12.57;;;9.63;;
73168;SDS011;61379;59.732;30.468;2023-04-06T05:21:49;11.15;;;8.68;;
73168;SDS011;61379;59.732;30.468;2023-04-06T05:24:17;12.20;;;9.18;;
73168;SDS011;61379;59.732;30.468;2023-04-06T05:26:44;13.00;;;10.77;;
73168;SDS011;61379;59.732;30.468;2023-04-06T05:29:11;14.32;;;10.75;;
73168;SDS011;61379;59.732;30.468;2023-04-06T05:31:38;11.38;;;9.35;;
73168;SDS011;61379;59.732;30.468;2023-04-06T05:34:05;14.50;;;9.13;;
73168;SDS011;61379;59.732;30.468;2023-04-06T05:36:31;14.43;;;10.38;;
73168;SDS011;61379;59.732;30.468;2023-04-06T05:38:58;11.52;;;10.27;;
73168;SDS011;61379;59.732;30.468;2023-04-06T05:41:26;12.77;;;9.52;;
73168;SDS011;61379;59.732;30.468;2023-04-06T05:43:53;13.07;;;10.15;;
73168;SDS011;61379;59.732;30.468;2023-04-06T05:46:20;11.48;;;10.38;;
73168;SDS011;61379;59.732;30.468;2023-04-06T05:48:46;11.13;;;9.88;;
73168;SDS011;61379;59.732;30.468;2023-04-06T05:51:13;11.45;;;9.43;;
73168;SDS011;61379;59.732;30.468;2023-04-06T05:53:40;10.90;;;9.20;;
73168;SDS011;61379;59.732;30.468;2023-04-06T05:56:07;10.73;;;9.05;;
73168;SDS011;61379;59.732;30.468;2023-04-06T05:58:35;9.27;;;8.25;;
73168;SDS011;61379;59.732;30.468;2023-04-06T06:01:02;13.52;;;8.77;;
73168;SDS011;61379;59.732;30.468;2023-04-06T06:03:30;11.57;;;9.00;;
73168;SDS011;61379;59.732;30.468;2023-04-06T06:05:59;12.48;;;9.35;;
73168;SDS011;61379;59.732;30.468;2023-04-06T06:08:26;9.88;;;8.10;;
73168;SDS011;61379;59.732;30.468;2023-04-06T06:10:52;16.35;;;10.00;;
73168;SDS011;61379;59.732;30.468;2023-04-06T06:13:19;12.65;;;9.45;;
73168;SDS011;61379;59.732;30.468;2023-04-06T06:15:47;15.10;;;10.25;;
73168;SDS011;61379;59.732;30.468;2023-04-06T06:18:14;15.10;;;10.00;;
73168;SDS011;61379;59.732;30.468;2023-04-06T06:20:41;11.43;;;9.80;;
73168;SDS011;61379;59.732;30.468;2023-04-06T06:23:07;12.65;;;10.05;;
73168;SDS011;61379;59.732;30.468;2023-04-06T06:25:34;13.90;;;10.38;;
73168;SDS011;61379;59.732;30.468;2023-04-06T06:28:01;11.65;;;10.45;;
73168;SDS011;61379;59.732;30.468;2023-04-06T06:30:27;11.50;;;10.00;;
73168;SDS011;61379;59.732;30.468;2023-04-06T06:32:56;16.08;;;10.55;;
73168;SDS011;61379;59.732;30.468;2023-04-06T06:35:23;12.18;;;9.70;;
73168;SDS011;61379;59.732;30.468;2023-04-06T06:37:50;9.52;;;8.60;;
73168;SDS011;61379;59.732;30.468;2023-04-06T06:40:16;12.25;;;9.75;;
73168;SDS011;61379;59.732;30.468;2023-04-06T06:42:43;10.90;;;9.00;;
73168;SDS011;61379;59.732;30.468;2023-04-06T06:45:10;13.48;;;9.02;;
73168;SDS011;61379;59.732;30.468;2023-04-06T06:47:37;13.77;;;10.43;;
73168;SDS011;61379;59.732;30.468;2023-04-06T06:50:06;12.27;;;9.43;;
73168;SDS011;61379;59.732;30.468;2023-04-06T06:52:32;14.23;;;10.45;;
73168;SDS011;61379;59.732;30.468;2023-04-06T06:54:59;11.27;;;9.40;;
73168;SDS011;61379;59.732;30.468;2023-04-06T06:57:27;9.95;;;8.90;;
73168;SDS011;61379;59.732;30.468;2023-04-06T06:59:54;9.93;;;8.95;;
73168;SDS011;61379;59.732;30.468;2023-04-06T07:02:21;12.80;;;9.05;;
73168;SDS011;61379;59.732;30.468;2023-04-06T07:04:47;9.88;;;8.88;;
73168;SDS011;61379;59.732;30.468;2023-04-06T07:07:15;12.43;;;10.25;;
73168;SDS011;61379;59.732;30.468;2023-04-06T07:09:42;15.02;;;10.52;;
73168;SDS011;61379;59.732;30.468;2023-04-06T07:12:09;12.82;;;10.30;;
73168;SDS011;61379;59.732;30.468;2023-04-06T07:14:35;13.40;;;10.48;;
73168;SDS011;61379;59.732;30.468;2023-04-06T07:17:03;11.38;;;10.18;;
73168;SDS011;61379;59.732;30.468;2023-04-06T07:19:29;13.55;;;10.52;;
73168;SDS011;61379;59.732;30.468;2023-04-06T07:21:56;11.63;;;10.27;;
73168;SDS011;61379;59.732;30.468;2023-04-06T07:24:24;16.27;;;10.98;;
73168;SDS011;61379;59.732;30.468;2023-04-06T07:26:51;15.10;;;10.57;;
73168;SDS011;61379;59.732;30.468;2023-04-06T07:29:18;24.02;;;13.57;;
73168;SDS011;61379;59.732;30.468;2023-04-06T07:31:45;11.73;;;10.38;;
73168;SDS011;61379;59.732;30.468;2023-04-06T07:34:11;12.45;;;9.73;;
73168;SDS011;61379;59.732;30.468;2023-04-06T07:36:38;13.60;;;10.75;;
73168;SDS011;61379;59.732;30.468;2023-04-06T07:39:05;13.70;;;11.13;;
73168;SDS011;61379;59.732;30.468;2023-04-06T07:41:33;13.63;;;11.13;;
73168;SDS011;61379;59.732;30.468;2023-04-06T07:44:00;11.98;;;10.73;;
73168;SDS011;61379;59.732;30.468;2023-04-06T07:46:27;12.73;;;11.10;;
73168;SDS011;61379;59.732;30.468;2023-04-06T07:48:53;14.60;;;11.45;;
73168;SDS011;61379;59.732;30.468;2023-04-06T07:51:20;12.50;;;11.25;;
73168;SDS011;61379;59.732;30.468;2023-04-06T07:53:47;12.15;;;10.05;;
73168;SDS011;61379;59.732;30.468;2023-04-06T07:56:13;12.13;;;10.68;;
73168;SDS011;61379;59.732;30.468;2023-04-06T07:58:42;12.23;;;10.95;;
73168;SDS011;61379;59.732;30.468;2023-04-06T08:01:08;17.45;;;10.77;;
73168;SDS011;61379;59.732;30.468;2023-04-06T08:03:35;13.98;;;10.70;;
73168;SDS011;61379;59.732;30.468;2023-04-06T08:06:02;12.43;;;10.90;;
73168;SDS011;61379;59.732;30.468;2023-04-06T08:08:29;14.25;;;11.85;;
73168;SDS011;61379;59.732;30.468;2023-04-06T08:10:56;13.88;;;10.55;;
73168;SDS011;61379;59.732;30.468;2023-04-06T08:13:23;10.40;;;9.10;;
73168;SDS011;61379;59.732;30.468;2023-04-06T08:15:51;13.00;;;10.30;;
73168;SDS011;61379;59.732;30.468;2023-04-06T08:18:18;13.18;;;9.63;;
73168;SDS011;61379;59.732;30.468;2023-04-06T08:20:45;10.82;;;9.52;;
73168;SDS011;61379;59.732;30.468;2023-04-06T08:23:12;12.57;;;10.60;;
73168;SDS011;61379;59.732;30.468;2023-04-06T08:25:38;12.50;;;8.90;;
73168;SDS011;61379;59.732;30.468;2023-04-06T08:28:05;11.20;;;9.68;;
73168;SDS011;61379;59.732;30.468;2023-04-06T08:30:32;12.50;;;9.93;;
73168;SDS011;61379;59.732;30.468;2023-04-06T08:33:00;11.80;;;9.88;;
73168;SDS011;61379;59.732;30.468;2023-04-06T08:35:27;10.48;;;9.38;;
73168;SDS011;61379;59.732;30.468;2023-04-06T08:37:53;12.32;;;9.23;;
73168;SDS011;61379;59.732;30.468;2023-04-06T08:40:20;11.18;;;9.77;;
73168;SDS011;61379;59.732;30.468;2023-04-06T08:42:49;16.33;;;10.48;;
73168;SDS011;61379;59.732;30.468;2023-04-06T08:45:16;10.65;;;9.32;;
73168;SDS011;61379;59.732;30.468;2023-04-06T08:50:14;11.15;;;9.82;;
73168;SDS011;61379;59.732;30.468;2023-04-06T08:52:42;13.23;;;10.68;;
73168;SDS011;61379;59.732;30.468;2023-04-06T08:55:09;10.75;;;9.70;;
73168;SDS011;61379;59.732;30.468;2023-04-06T08:57:36;12.63;;;10.27;;
73168;SDS011;61379;59.732;30.468;2023-04-06T09:00:03;10.27;;;9.27;;
73168;SDS011;61379;59.732;30.468;2023-04-06T09:02:30;12.18;;;10.50;;
73168;SDS011;61379;59.732;30.468;2023-04-06T09:04:57;11.38;;;10.27;;
73168;SDS011;61379;59.732;30.468;2023-04-06T09:07:26;13.77;;;10.77;;
73168;SDS011;61379;59.732;30.468;2023-04-06T09:09:54;13.50;;;11.50;;
73168;SDS011;61379;59.732;30.468;2023-04-06T09:12:24;14.90;;;10.05;;
73168;SDS011;61379;59.732;30.468;2023-04-06T09:14:51;11.93;;;10.73;;
73168;SDS011;61379;59.732;30.468;2023-04-06T09:17:21;10.13;;;9.20;;
73168;SDS011;61379;59.732;30.468;2023-04-06T09:19:48;11.20;;;10.05;;
73168;SDS011;61379;59.732;30.468;2023-04-06T09:22:15;10.43;;;9.43;;
73168;SDS011;61379;59.732;30.468;2023-04-06T09:24:44;11.40;;;10.10;;
73168;SDS011;61379;59.732;30.468;2023-04-06T09:27:11;13.02;;;9.88;;
73168;SDS011;61379;59.732;30.468;2023-04-06T09:29:38;10.02;;;9.13;;
73168;SDS011;61379;59.732;30.468;2023-04-06T09:32:05;20.65;;;13.57;;
73168;SDS011;61379;59.732;30.468;2023-04-06T09:34:32;10.52;;;9.52;;
73168;SDS011;61379;59.732;30.468;2023-04-06T09:36:59;11.68;;;9.75;;
73168;SDS011;61379;59.732;30.468;2023-04-06T09:39:26;12.02;;;10.23;;
73168;SDS011;61379;59.732;30.468;2023-04-06T09:41:54;10.95;;;9.82;;
73168;SDS011;61379;59.732;30.468;2023-04-06T09:44:21;10.93;;;9.82;;
73168;SDS011;61379;59.732;30.468;2023-04-06T09:46:49;10.98;;;9.88;;
73168;SDS011;61379;59.732;30.468;2023-04-06T09:49:15;11.52;;;10.30;;
73168;SDS011;61379;59.732;30.468;2023-04-06T09:51:45;9.88;;;8.98;;
73168;SDS011;61379;59.732;30.468;2023-04-06T09:54:12;10.23;;;9.18;;
73168;SDS011;61379;59.732;30.468;2023-04-06T09:59:12;12.75;;;10.18;;
73168;SDS011;61379;59.732;30.468;2023-04-06T10:01:39;11.32;;;10.32;;
73168;SDS011;61379;59.732;30.468;2023-04-06T10:04:09;11.30;;;9.82;;
73168;SDS011;61379;59.732;30.468;2023-04-06T10:06:39;11.25;;;9.57;;
73168;SDS011;61379;59.732;30.468;2023-04-06T10:09:07;10.30;;;9.23;;
73168;SDS011;61379;59.732;30.468;2023-04-06T10:11:34;10.02;;;9.07;;
73168;SDS011;61379;59.732;30.468;2023-04-06T10:14:01;10.00;;;9.20;;
73168;SDS011;61379;59.732;30.468;2023-04-06T10:16:29;11.52;;;10.27;;
73168;SDS011;61379;59.732;30.468;2023-04-06T10:18:58;12.32;;;11.15;;
73168;SDS011;61379;59.732;30.468;2023-04-06T10:23:54;11.68;;;10.63;;
73168;SDS011;61379;59.732;30.468;2023-04-06T10:26:22;13.52;;;12.25;;
73168;SDS011;61379;59.732;30.468;2023-04-06T10:28:49;12.07;;;10.98;;
73168;SDS011;61379;59.732;30.468;2023-04-06T10:31:23;11.85;;;10.85;;
73168;SDS011;61379;59.732;30.468;2023-04-06T10:33:54;12.40;;;11.40;;
73168;SDS011;61379;59.732;30.468;2023-04-06T10:36:22;13.73;;;11.23;;
73168;SDS011;61379;59.732;30.468;2023-04-06T10:38:53;13.10;;;11.93;;
73168;SDS011;61379;59.732;30.468;2023-04-06T10:41:20;12.80;;;11.57;;
73168;SDS011;61379;59.732;30.468;2023-04-06T10:43:54;13.70;;;12.23;;
73168;SDS011;61379;59.732;30.468;2023-04-06T10:46:24;12.52;;;11.35;;
73168;SDS011;61379;59.732;30.468;2023-04-06T10:48:51;13.13;;;11.70;;
73168;SDS011;61379;59.732;30.468;2023-04-06T10:51:19;13.38;;;12.10;;
73168;SDS011;61379;59.732;30.468;2023-04-06T10:53:52;12.70;;;11.68;;
73168;SDS011;61379;59.732;30.468;2023-04-06T10:56:21;12.88;;;11.80;;
73168;SDS011;61379;59.732;30.468;2023-04-06T10:58:48;13.45;;;12.15;;
73168;SDS011;61379;59.732;30.468;2023-04-06T11:01:15;13.88;;;12.55;;
73168;SDS011;61379;59.732;30.468;2023-04-06T11:03:43;13.27;;;12.18;;
73168;SDS011;61379;59.732;30.468;2023-04-06T11:06:10;13.43;;;11.35;;
73168;SDS011;61379;59.732;30.468;2023-04-06T11:08:38;11.02;;;9.95;;
73168;SDS011;61379;59.732;30.468;2023-04-06T11:11:06;13.55;;;12.15;;
73168;SDS011;61379;59.732;30.468;2023-04-06T11:13:37;12.52;;;10.70;;
73168;SDS011;61379;59.732;30.468;2023-04-06T11:16:04;13.20;;;11.90;;
73168;SDS011;61379;59.732;30.468;2023-04-06T11:18:31;15.18;;;12.38;;
73168;SDS011;61379;59.732;30.468;2023-04-06T11:20:58;14.55;;;12.43;;
73168;SDS011;61379;59.732;30.468;2023-04-06T11:23:24;15.10;;;13.43;;
73168;SDS011;61379;59.732;30.468;2023-04-06T11:25:53;14.27;;;12.68;;
73168;SDS011;61379;59.732;30.468;2023-04-06T11:28:20;13.05;;;11.85;;
73168;SDS011;61379;59.732;30.468;2023-04-06T11:30:46;14.18;;;12.18;;
73168;SDS011;61379;59.732;30.468;2023-04-06T11:33:19;15.85;;;14.00;;
73168;SDS011;61379;59.732;30.468;2023-04-06T11:35:46;16.58;;;13.07;;
73168;SDS011;61379;59.732;30.468;2023-04-06T11:38:13;18.25;;;12.88;;
73168;SDS011;61379;59.732;30.468;2023-04-06T11:40:39;12.60;;;11.27;;
73168;SDS011;61379;59.732;30.468;2023-04-06T11:43:10;15.02;;;11.95;;
73168;SDS011;61379;59.732;30.468;2023-04-06T11:45:40;13.57;;;12.15;;
73168;SDS011;61379;59.732;30.468;2023-04-06T11:48:16;11.65;;;10.45;;
73168;SDS011;61379;59.732;30.468;2023-04-06T11:50:45;12.18;;;11.13;;
73168;SDS011;61379;59.732;30.468;2023-04-06T11:53:12;15.10;;;13.60;;
73168;SDS011;61379;59.732;30.468;2023-04-06T11:55:39;16.10;;;12.23;;
73168;SDS011;61379;59.732;30.468;2023-04-06T11:58:07;12.23;;;11.05;;
73168;SDS011;61379;59.732;30.468;2023-04-06T12:00:34;13.50;;;12.07;;
73168;SDS011;61379;59.732;30.468;2023-04-06T12:03:02;13.43;;;12.02;;
73168;SDS011;61379;59.732;30.468;2023-04-06T12:05:29;12.48;;;11.25;;
73168;SDS011;61379;59.732;30.468;2023-04-06T12:07:55;12.25;;;11.07;;
73168;SDS011;61379;59.732;30.468;2023-04-06T12:10:22;12.70;;;11.60;;
73168;SDS011;61379;59.732;30.468;2023-04-06T12:12:49;12.73;;;11.52;;
73168;SDS011;61379;59.732;30.468;2023-04-06T12:15:17;13.82;;;12.35;;
73168;SDS011;61379;59.732;30.468;2023-04-06T12:17:44;12.93;;;11.65;;
73168;SDS011;61379;59.732;30.468;2023-04-06T12:20:11;11.77;;;10.68;;
73168;SDS011;61379;59.732;30.468;2023-04-06T12:22:38;11.93;;;10.73;;
73168;SDS011;61379;59.732;30.468;2023-04-06T12:25:05;12.50;;;11.38;;
73168;SDS011;61379;59.732;30.468;2023-04-06T12:27:33;13.85;;;12.55;;
73168;SDS011;61379;59.732;30.468;2023-04-06T12:29:59;13.63;;;12.25;;
73168;SDS011;61379;59.732;30.468;2023-04-06T12:32:30;18.35;;;12.38;;
73168;SDS011;61379;59.732;30.468;2023-04-06T12:34:56;13.95;;;12.35;;
73168;SDS011;61379;59.732;30.468;2023-04-06T12:37:23;13.02;;;11.82;;
73168;SDS011;61379;59.732;30.468;2023-04-06T12:39:52;15.13;;;11.60;;
73168;SDS011;61379;59.732;30.468;2023-04-06T12:42:18;12.95;;;11.52;;
73168;SDS011;61379;59.732;30.468;2023-04-06T12:44:45;13.43;;;11.23;;
73168;SDS011;61379;59.732;30.468;2023-04-06T12:47:12;12.07;;;10.82;;
73168;SDS011;61379;59.732;30.468;2023-04-06T12:49:40;12.25;;;11.13;;
73168;SDS011;61379;59.732;30.468;2023-04-06T12:57:01;13.10;;;10.30;;
73168;SDS011;61379;59.732;30.468;2023-04-06T12:59:28;12.95;;;9.80;;
73168;SDS011;61379;59.732;30.468;2023-04-06T13:01:59;11.02;;;10.02;;
73168;SDS011;61379;59.732;30.468;2023-04-06T13:04:26;10.45;;;9.55;;
73168;SDS011;61379;59.732;30.468;2023-04-06T13:06:54;11.70;;;10.57;;
73168;SDS011;61379;59.732;30.468;2023-04-06T13:09:21;10.68;;;9.68;;
73168;SDS011;61379;59.732;30.468;2023-04-06T13:11:48;11.50;;;10.32;;
73168;SDS011;61379;59.732;30.468;2023-04-06T13:14:14;11.18;;;10.07;;
73168;SDS011;61379;59.732;30.468;2023-04-06T13:16:41;14.63;;;11.45;;
73168;SDS011;61379;59.732;30.468;2023-04-06T13:19:08;11.30;;;10.15;;
73168;SDS011;61379;59.732;30.468;2023-04-06T13:21:35;11.75;;;10.48;;
73168;SDS011;61379;59.732;30.468;2023-04-06T13:24:04;13.52;;;10.82;;
73168;SDS011;61379;59.732;30.468;2023-04-06T13:26:31;13.73;;;12.52;;
73168;SDS011;61379;59.732;30.468;2023-04-06T13:28:59;12.23;;;11.00;;
73168;SDS011;61379;59.732;30.468;2023-04-06T13:31:26;11.20;;;10.25;;
73168;SDS011;61379;59.732;30.468;2023-04-06T13:33:52;10.85;;;9.57;;
73168;SDS011;61379;59.732;30.468;2023-04-06T13:36:19;14.35;;;10.45;;
73168;SDS011;61379;59.732;30.468;2023-04-06T13:38:46;12.10;;;10.40;;
73168;SDS011;61379;59.732;30.468;2023-04-06T13:41:18;10.70;;;9.45;;
73168;SDS011;61379;59.732;30.468;2023-04-06T13:43:46;12.30;;;9.73;;
73168;SDS011;61379;59.732;30.468;2023-04-06T13:46:13;10.95;;;9.95;;
73168;SDS011;61379;59.732;30.468;2023-04-06T13:48:39;15.25;;;10.50;;
73168;SDS011;61379;59.732;30.468;2023-04-06T13:51:09;12.00;;;10.25;;
73168;SDS011;61379;59.732;30.468;2023-04-06T13:53:36;14.60;;;10.82;;
73168;SDS011;61379;59.732;30.468;2023-04-06T13:56:03;11.75;;;9.20;;
73168;SDS011;61379;59.732;30.468;2023-04-06T13:58:31;10.45;;;9.35;;
73168;SDS011;61379;59.732;30.468;2023-04-06T14:01:01;11.45;;;9.38;;
73168;SDS011;61379;59.732;30.468;2023-04-06T14:03:28;10.30;;;9.02;;
73168;SDS011;61379;59.732;30.468;2023-04-06T14:05:54;12.98;;;9.77;;
73168;SDS011;61379;59.732;30.468;2023-04-06T14:08:21;12.13;;;8.20;;
73168;SDS011;61379;59.732;30.468;2023-04-06T14:10:48;8.73;;;7.55;;
73168;SDS011;61379;59.732;30.468;2023-04-06T14:13:14;8.75;;;7.80;;
73168;SDS011;61379;59.732;30.468;2023-04-06T14:15:43;9.50;;;8.77;;
73168;SDS011;61379;59.732;30.468;2023-04-06T14:18:10;10.82;;;8.63;;
73168;SDS011;61379;59.732;30.468;2023-04-06T14:20:37;9.38;;;8.15;;
73168;SDS011;61379;59.732;30.468;2023-04-06T14:23:03;14.70;;;8.68;;
73168;SDS011;61379;59.732;30.468;2023-04-06T14:25:30;11.50;;;8.82;;